createdAt,value
2023-01-15T00:00:15.815Z,503.2
2023-01-15T00:01:18.149Z,502.9
2023-01-15T00:02:20.353Z,503.4
2023-01-15T00:03:22.415Z,503.2
2023-01-15T00:04:24.333Z,503.3
2023-01-15T00:05:26.195Z,503.6
2023-01-15T00:06:28.055Z,503.4
2023-01-15T00:07:30.243Z,503.6
2023-01-15T00:08:32.053Z,503.4
2023-01-15T00:09:33.945Z,503.3
2023-01-15T00:10:36.065Z,503.7
2023-01-15T00:11:38.000Z,503.8
2023-01-15T00:12:39.858Z,503.8
2023-01-15T00:13:41.841Z,504.2
2023-01-15T00:14:43.668Z,503.9
2023-01-15T00:15:45.826Z,503.9
2023-01-15T00:16:47.660Z,504.2
2023-01-15T00:17:49.626Z,503.8
2023-01-15T00:18:51.477Z,503.7
2023-01-15T00:19:53.318Z,503.6
2023-01-15T00:20:55.178Z,503.9
2023-01-15T00:21:57.123Z,503.7
2023-01-15T00:22:58.971Z,503.7
2023-01-15T00:24:00.816Z,503.8
2023-01-15T00:25:02.670Z,503.8
2023-01-15T00:26:04.553Z,504.2
2023-01-15T00:27:06.637Z,504
2023-01-15T00:28:08.418Z,503.8
2023-01-15T00:29:10.276Z,504
2023-01-15T00:30:12.345Z,504.1
2023-01-15T00:31:14.446Z,503.7
2023-01-15T00:32:16.586Z,503.7
2023-01-15T00:33:18.516Z,503.7
2023-01-15T00:34:20.414Z,503.6
2023-01-15T00:35:22.427Z,503.6
2023-01-15T00:36:24.268Z,503.2
2023-01-15T00:37:26.204Z,503.5
2023-01-15T00:38:28.154Z,503.7
2023-01-15T00:39:29.996Z,503.7
2023-01-15T00:40:31.870Z,503.7
2023-01-15T00:41:33.629Z,503.4
2023-01-15T00:42:35.690Z,503.6
2023-01-15T00:43:37.530Z,503.8
2023-01-15T00:44:39.706Z,504.2
2023-01-15T00:45:41.618Z,504
2023-01-15T00:46:43.810Z,504.3
2023-01-15T00:47:45.657Z,504.3
2023-01-15T00:48:47.723Z,504.5
2023-01-15T00:49:49.631Z,504.4
2023-01-15T00:50:51.484Z,504.6
2023-01-15T00:51:53.331Z,504.6
2023-01-15T00:52:55.178Z,504.8
2023-01-15T00:53:57.134Z,504.8
2023-01-15T00:54:59.077Z,504.7
2023-01-15T00:56:00.943Z,504.7
2023-01-15T00:57:02.780Z,504.8
2023-01-15T00:58:04.734Z,504.8
2023-01-15T00:59:06.608Z,504.9
2023-01-15T01:00:08.663Z,504.9
2023-01-15T01:01:11.367Z,504.8
2023-01-15T01:02:13.987Z,504.6
2023-01-15T01:03:15.936Z,504.7
2023-01-15T01:04:17.775Z,504.7
2023-01-15T01:05:19.563Z,504.5
2023-01-15T01:06:21.380Z,504.4
2023-01-15T01:07:23.434Z,504.5
2023-01-15T01:08:25.345Z,504.2
2023-01-15T01:09:27.236Z,504.1
2023-01-15T01:10:29.090Z,504.4
2023-01-15T01:11:31.032Z,504.5
2023-01-15T01:12:33.139Z,504.7
2023-01-15T01:13:34.963Z,504.4
2023-01-15T01:14:36.912Z,504.1
2023-01-15T01:15:38.880Z,504.1
2023-01-15T01:16:40.815Z,504.6
2023-01-15T01:17:42.753Z,504.2
2023-01-15T01:18:44.604Z,504.4
2023-01-15T01:19:46.609Z,504.6
2023-01-15T01:20:48.505Z,504.4
2023-01-15T01:21:50.462Z,504.5
2023-01-15T01:22:52.416Z,504.5
2023-01-15T01:23:54.267Z,504.3
2023-01-15T01:24:56.115Z,504.2
2023-01-15T01:25:57.967Z,504.6
2023-01-15T01:26:59.805Z,504.6
2023-01-15T01:28:01.670Z,504.6
2023-01-15T01:29:03.617Z,505
2023-01-15T01:30:05.569Z,505.2
2023-01-15T01:31:07.660Z,505.1
2023-01-15T01:32:09.839Z,505.5
2023-01-15T01:33:11.939Z,505.6
2023-01-15T01:34:13.807Z,505.4
2023-01-15T01:35:15.902Z,505.6
2023-01-15T01:36:17.793Z,505.6
2023-01-15T01:37:19.567Z,505.8
2023-01-15T01:38:21.352Z,506.1
2023-01-15T01:39:23.451Z,506
2023-01-15T01:40:25.299Z,506
2023-01-15T01:41:27.162Z,505.9
2023-01-15T01:42:29.011Z,506.1
2023-01-15T01:43:30.882Z,505.8
2023-01-15T01:44:32.849Z,506.1
2023-01-15T01:45:35.157Z,506.1
2023-01-15T01:46:37.127Z,505.8
2023-01-15T01:47:38.961Z,505.8
2023-01-15T01:48:40.919Z,505.7
2023-01-15T01:49:42.758Z,505.9
2023-01-15T01:50:44.611Z,505.2
2023-01-15T01:51:46.360Z,505.6
2023-01-15T01:52:48.241Z,505.4
2023-01-15T01:53:50.182Z,505.5
2023-01-15T01:54:52.114Z,505.7
2023-01-15T01:55:54.072Z,505.6
2023-01-15T01:56:55.920Z,505.4
2023-01-15T01:57:57.792Z,505.6
2023-01-15T01:58:59.715Z,505.6
2023-01-15T02:00:01.675Z,505.5
2023-01-15T02:01:04.218Z,505.5
2023-01-15T02:02:06.925Z,505.8
2023-01-15T02:03:08.866Z,505.6
2023-01-15T02:04:10.921Z,506.1
2023-01-15T02:05:12.795Z,505.7
2023-01-15T02:06:14.958Z,505.5
2023-01-15T02:07:16.785Z,505.5
2023-01-15T02:08:18.624Z,505.1
2023-01-15T02:09:20.580Z,505
2023-01-15T02:10:22.435Z,505
2023-01-15T02:11:24.373Z,505.3
2023-01-15T02:12:26.268Z,505.2
2023-01-15T02:13:28.074Z,505.3
2023-01-15T02:14:30.044Z,505.4
2023-01-15T02:15:32.008Z,505.2
2023-01-15T02:16:34.384Z,505.7
2023-01-15T02:17:36.317Z,505.7
2023-01-15T02:18:38.152Z,505.8
2023-01-15T02:19:40.070Z,505.6
2023-01-15T02:20:42.073Z,505.7
2023-01-15T02:21:43.903Z,505.5
2023-01-15T02:22:45.746Z,505.7
2023-01-15T02:23:47.804Z,506
2023-01-15T02:24:49.752Z,505.8
2023-01-15T02:25:51.714Z,505.8
2023-01-15T02:26:53.563Z,506.1
2023-01-15T02:27:55.404Z,506
2023-01-15T02:28:57.359Z,506
2023-01-15T02:29:59.216Z,506
2023-01-15T02:31:01.046Z,506
2023-01-15T02:32:03.012Z,505.9
2023-01-15T02:33:04.869Z,505.9
2023-01-15T02:34:06.720Z,505.8
2023-01-15T02:35:08.569Z,505.4
2023-01-15T02:36:10.540Z,505.7
2023-01-15T02:37:12.386Z,505.6
2023-01-15T02:38:14.222Z,505.8
2023-01-15T02:39:16.169Z,505.7
2023-01-15T02:40:18.022Z,505.7
2023-01-15T02:41:19.884Z,505.9
2023-01-15T02:42:21.849Z,505.9
2023-01-15T02:43:23.784Z,506.1
2023-01-15T02:44:25.620Z,506
2023-01-15T02:45:28.148Z,505.7
2023-01-15T02:46:30.045Z,506.2
2023-01-15T02:47:31.987Z,506
2023-01-15T02:48:33.845Z,506.4
2023-01-15T02:49:35.726Z,506.5
2023-01-15T02:50:37.648Z,506.7
2023-01-15T02:51:39.513Z,506.5
2023-01-15T02:52:41.464Z,507
2023-01-15T02:53:43.344Z,506.9
2023-01-15T02:54:45.152Z,506.8
2023-01-15T02:55:47.104Z,507
2023-01-15T02:56:49.082Z,506.7
2023-01-15T02:57:50.906Z,506.7
2023-01-15T02:58:52.746Z,506.9
2023-01-15T02:59:54.618Z,506.7
2023-01-15T03:00:56.938Z,506.7
2023-01-15T03:01:59.434Z,506.7
2023-01-15T03:03:01.377Z,507.2
2023-01-15T03:04:03.234Z,506.8
2023-01-15T03:05:05.087Z,506.7
2023-01-15T03:06:07.046Z,506.7
2023-01-15T03:07:08.879Z,507.1
2023-01-15T03:08:10.746Z,506.9
2023-01-15T03:09:12.595Z,507.4
2023-01-15T03:10:14.431Z,506.9
2023-01-15T03:11:16.412Z,507
2023-01-15T03:12:18.356Z,507
2023-01-15T03:13:20.207Z,506.8
2023-01-15T03:14:22.054Z,506.8
2023-01-15T03:15:23.994Z,506.8
2023-01-15T03:16:26.297Z,506.5
2023-01-15T03:17:28.204Z,506.6
2023-01-15T03:18:30.420Z,506.5
2023-01-15T03:19:32.321Z,506.6
2023-01-15T03:20:34.175Z,506.4
2023-01-15T03:21:36.433Z,506.5
2023-01-15T03:22:38.313Z,506.6
2023-01-15T03:23:40.138Z,506.5
2023-01-15T03:24:41.967Z,506.2
2023-01-15T03:25:43.835Z,506.4
2023-01-15T03:26:45.794Z,506.2
2023-01-15T03:27:47.727Z,506.5
2023-01-15T03:28:49.572Z,506.4
2023-01-15T03:29:51.568Z,506.4
2023-01-15T03:30:53.704Z,506.4
2023-01-15T03:31:55.634Z,506.1
2023-01-15T03:32:57.489Z,506.4
2023-01-15T03:33:59.345Z,506.4
2023-01-15T03:35:01.199Z,506.2
2023-01-15T03:36:02.944Z,506
2023-01-15T03:37:04.882Z,506
2023-01-15T03:38:06.844Z,506.1
2023-01-15T03:39:08.797Z,506
2023-01-15T03:40:10.660Z,506.1
2023-01-15T03:41:12.506Z,505.7
2023-01-15T03:42:14.468Z,505.9
2023-01-15T03:43:16.409Z,506
2023-01-15T03:44:18.264Z,505.8
2023-01-15T03:45:20.221Z,505.8
2023-01-15T03:46:22.468Z,505.6
2023-01-15T03:47:24.259Z,505.6
2023-01-15T03:48:26.266Z,505.4
2023-01-15T03:49:28.121Z,505.6
2023-01-15T03:50:30.075Z,505.6
2023-01-15T03:51:31.917Z,505.5
2023-01-15T03:52:33.866Z,505.5
2023-01-15T03:53:35.747Z,505.4
2023-01-15T03:54:37.695Z,505.5
2023-01-15T03:55:39.453Z,505.5
2023-01-15T03:56:41.262Z,505.5
2023-01-15T03:57:43.227Z,505.7
2023-01-15T03:58:45.213Z,505.6
2023-01-15T03:59:47.054Z,505.4
2023-01-15T04:00:48.978Z,505.7
2023-01-15T04:01:51.444Z,506
2023-01-15T04:02:53.510Z,505.7
2023-01-15T04:03:55.597Z,505.9
2023-01-15T04:04:57.497Z,506.2
2023-01-15T04:05:59.450Z,506.2
2023-01-15T04:07:01.539Z,506.2
2023-01-15T04:08:03.371Z,506.3
2023-01-15T04:09:05.216Z,506.3
2023-01-15T04:10:07.155Z,506.3
2023-01-15T04:11:09.107Z,506.2
2023-01-15T04:12:10.959Z,506.3
2023-01-15T04:13:12.820Z,506.5
2023-01-15T04:14:15.015Z,506.5
2023-01-15T04:15:16.956Z,506.7
2023-01-15T04:16:18.700Z,506.7
2023-01-15T04:17:20.421Z,506.8
2023-01-15T04:18:22.236Z,506.9
2023-01-15T04:19:24.238Z,506.9
2023-01-15T04:20:26.144Z,506.9
2023-01-15T04:21:28.029Z,506.8
2023-01-15T04:22:29.870Z,506.9
2023-01-15T04:23:31.719Z,506.7
2023-01-15T04:24:33.567Z,506.6
2023-01-15T04:25:35.560Z,506.8
2023-01-15T04:26:37.394Z,506.6
2023-01-15T04:27:39.229Z,506.4
2023-01-15T04:28:41.072Z,506.5
2023-01-15T04:29:43.153Z,506.2
2023-01-15T04:30:45.427Z,506.3
2023-01-15T04:31:47.447Z,505.9
2023-01-15T04:32:49.307Z,505.9
2023-01-15T04:33:51.049Z,505.9
2023-01-15T04:34:52.988Z,506.1
2023-01-15T04:35:54.964Z,506
2023-01-15T04:36:56.778Z,506.1
2023-01-15T04:37:58.673Z,505.7
2023-01-15T04:39:00.730Z,505.9
2023-01-15T04:40:02.545Z,505.4
2023-01-15T04:41:04.406Z,505.5
2023-01-15T04:42:06.326Z,505.5
2023-01-15T04:43:08.308Z,505.2
2023-01-15T04:44:10.311Z,505.3
2023-01-15T04:45:12.325Z,505.4
2023-01-15T04:46:14.500Z,505.1
2023-01-15T04:47:16.551Z,505
2023-01-15T04:48:18.384Z,505.1
2023-01-15T04:49:20.369Z,504.9
2023-01-15T04:50:22.198Z,504.8
2023-01-15T04:51:24.022Z,504.8
2023-01-15T04:52:25.985Z,504.7
2023-01-15T04:53:27.826Z,504.8
2023-01-15T04:54:29.798Z,504.8
2023-01-15T04:55:31.626Z,504.6
2023-01-15T04:56:33.475Z,504.6
2023-01-15T04:57:35.224Z,504.7
2023-01-15T04:58:37.105Z,505.1
2023-01-15T04:59:38.932Z,505.2
2023-01-15T05:00:40.888Z,505.2
2023-01-15T05:02:07.174Z,505.2
2023-01-15T05:03:09.082Z,505.2
2023-01-15T05:04:11.269Z,505.3
2023-01-15T05:05:13.168Z,505.3
2023-01-15T05:06:15.010Z,505.2
2023-01-15T05:07:17.004Z,505
2023-01-15T05:08:18.811Z,505.5
2023-01-15T05:09:20.785Z,505.2
2023-01-15T05:10:22.742Z,505.4
2023-01-15T05:11:24.581Z,505.4
2023-01-15T05:12:26.527Z,505.1
2023-01-15T05:13:28.380Z,505.6
2023-01-15T05:14:30.240Z,505.3
2023-01-15T05:15:32.410Z,504.9
2023-01-15T05:16:34.162Z,505.2
2023-01-15T05:17:36.396Z,505.6
2023-01-15T05:18:38.334Z,505.4
2023-01-15T05:19:40.317Z,505.7
2023-01-15T05:20:42.196Z,505.7
2023-01-15T05:21:43.940Z,505.3
2023-01-15T05:22:45.959Z,505.8
2023-01-15T05:23:47.803Z,505.9
2023-01-15T05:24:49.675Z,505.8
2023-01-15T05:25:51.617Z,505.8
2023-01-15T05:26:53.349Z,505.4
2023-01-15T05:27:55.194Z,505.5
2023-01-15T05:28:57.040Z,505.5
2023-01-15T05:29:58.893Z,505.3
2023-01-15T05:31:00.982Z,505.3
2023-01-15T05:32:02.900Z,505.4
2023-01-15T05:33:04.772Z,505.8
2023-01-15T05:34:06.661Z,505.3
2023-01-15T05:35:08.565Z,505.5
2023-01-15T05:36:10.480Z,505.6
2023-01-15T05:37:12.457Z,505.6
2023-01-15T05:38:14.306Z,505.5
2023-01-15T05:39:16.276Z,505.6
2023-01-15T05:40:18.221Z,505.7
2023-01-15T05:41:20.084Z,505.6
2023-01-15T05:42:21.911Z,505.8
2023-01-15T05:43:23.788Z,505.9
2023-01-15T05:44:25.712Z,506.5
2023-01-15T05:45:27.680Z,506.1
2023-01-15T05:46:29.779Z,506.2
2023-01-15T05:47:31.692Z,506.1
2023-01-15T05:48:33.522Z,506.2
2023-01-15T05:49:35.459Z,505.9
2023-01-15T05:50:37.441Z,505.9
2023-01-15T05:51:39.409Z,505.7
2023-01-15T05:52:41.241Z,505.6
2023-01-15T05:53:43.201Z,505.6
2023-01-15T05:54:45.032Z,505.5
2023-01-15T05:55:46.896Z,505.2
2023-01-15T05:56:48.758Z,505.2
2023-01-15T05:57:50.520Z,505.1
2023-01-15T05:58:52.550Z,505
2023-01-15T05:59:54.591Z,504.8
2023-01-15T06:00:56.956Z,504.8
2023-01-15T06:01:58.948Z,504.6
2023-01-15T06:03:01.264Z,504.5
2023-01-15T06:04:03.621Z,504.5
2023-01-15T06:05:05.486Z,504.7
2023-01-15T06:06:07.444Z,504.1
2023-01-15T06:07:09.612Z,504.7
2023-01-15T06:08:11.799Z,504.1
2023-01-15T06:09:13.705Z,504
2023-01-15T06:10:15.555Z,504.1
2023-01-15T06:11:17.500Z,504.6
2023-01-15T06:12:19.377Z,504.3
2023-01-15T06:13:21.319Z,504.5
2023-01-15T06:14:23.238Z,504.2
2023-01-15T06:15:25.445Z,504.5
2023-01-15T06:16:27.399Z,504.4
2023-01-15T06:17:29.214Z,504.6
2023-01-15T06:18:31.072Z,504.5
2023-01-15T06:19:33.024Z,504.7
2023-01-15T06:20:34.985Z,504.5
2023-01-15T06:21:37.654Z,504.5
2023-01-15T06:22:39.494Z,504.2
2023-01-15T06:23:41.677Z,504.4
2023-01-15T06:24:43.995Z,504
2023-01-15T06:25:45.886Z,504.6
2023-01-15T06:26:47.735Z,504.6
2023-01-15T06:27:49.565Z,504.1
2023-01-15T06:28:51.518Z,504.3
2023-01-15T06:29:53.371Z,504.6
2023-01-15T06:30:55.223Z,504.8
2023-01-15T06:31:57.067Z,504.7
2023-01-15T06:32:58.911Z,505.4
2023-01-15T06:34:01.092Z,505.1
2023-01-15T06:35:02.834Z,505.1
2023-01-15T06:36:04.673Z,505.1
2023-01-15T06:37:06.616Z,505.1
2023-01-15T06:38:08.852Z,504.9
2023-01-15T06:39:10.741Z,504.9
2023-01-15T06:40:12.579Z,505
2023-01-15T06:41:14.430Z,505.2
2023-01-15T06:42:16.315Z,504.9
2023-01-15T06:43:18.492Z,504.8
2023-01-15T06:44:20.508Z,504.7
2023-01-15T06:45:22.339Z,504.5
2023-01-15T06:46:24.499Z,504.5
2023-01-15T06:47:26.443Z,504.2
2023-01-15T06:48:28.420Z,504.3
2023-01-15T06:49:30.289Z,504.1
2023-01-15T06:50:32.098Z,504.2
2023-01-15T06:51:34.065Z,504.4
2023-01-15T06:52:36.009Z,504.5
2023-01-15T06:53:37.981Z,504.8
2023-01-15T06:54:39.819Z,504.9
2023-01-15T06:55:41.793Z,504.8
2023-01-15T06:56:43.719Z,505.4
2023-01-15T06:57:45.642Z,505.5
2023-01-15T06:58:47.540Z,505.3
2023-01-15T06:59:49.527Z,505.2
2023-01-15T07:00:51.637Z,505
2023-01-15T07:01:53.809Z,504.7
2023-01-15T07:02:55.842Z,504.5
2023-01-15T07:03:57.964Z,504.5
2023-01-15T07:04:59.961Z,504.5
2023-01-15T07:06:01.798Z,504.6
2023-01-15T07:07:03.780Z,504.5
2023-01-15T07:08:05.705Z,504.6
2023-01-15T07:09:07.550Z,504.6
2023-01-15T07:10:09.513Z,504.7
2023-01-15T07:11:11.377Z,504.7
2023-01-15T07:12:13.203Z,504.7
2023-01-15T07:13:15.052Z,505
2023-01-15T07:14:17.136Z,505.3
2023-01-15T07:15:19.204Z,505.9
2023-01-15T07:16:21.491Z,505.7
2023-01-15T07:17:23.373Z,505.5
2023-01-15T07:18:25.239Z,505.1
2023-01-15T07:19:27.206Z,505.1
2023-01-15T07:20:29.200Z,505
2023-01-15T07:21:31.461Z,504.8
2023-01-15T07:22:33.352Z,505.2
2023-01-15T07:23:35.317Z,505.3
2023-01-15T07:24:37.181Z,505
2023-01-15T07:25:38.994Z,505
2023-01-15T07:26:40.783Z,505
2023-01-15T07:27:42.535Z,505
2023-01-15T07:28:44.644Z,504.8
2023-01-15T07:29:46.603Z,504.6
2023-01-15T07:30:48.589Z,504.2
2023-01-15T07:31:50.300Z,504.1
2023-01-15T07:32:52.261Z,504
2023-01-15T07:33:54.107Z,504.3
2023-01-15T07:34:56.062Z,504.2
2023-01-15T07:35:57.918Z,504.5
2023-01-15T07:36:59.764Z,504.2
2023-01-15T07:38:01.602Z,503.8
2023-01-15T07:39:03.450Z,503.6
2023-01-15T07:40:05.439Z,503.6
2023-01-15T07:41:07.262Z,503.6
2023-01-15T07:42:09.103Z,503.7
2023-01-15T07:43:11.077Z,503.6
2023-01-15T07:44:12.911Z,503.4
2023-01-15T07:45:14.875Z,504.1
2023-01-15T07:46:16.739Z,503.9
2023-01-15T07:47:18.698Z,503.5
2023-01-15T07:48:20.643Z,503.5
2023-01-15T07:49:22.461Z,503.7
2023-01-15T07:50:24.447Z,503.6
2023-01-15T07:51:26.382Z,503.7
2023-01-15T07:52:28.328Z,503.9
2023-01-15T07:53:30.201Z,503.7
2023-01-15T07:54:32.237Z,503.9
2023-01-15T07:55:34.329Z,504
2023-01-15T07:56:36.495Z,504
2023-01-15T07:57:38.514Z,503.6
2023-01-15T07:58:40.340Z,503.7
2023-01-15T07:59:42.191Z,503.4
2023-01-15T08:00:44.530Z,503.6
2023-01-15T08:01:46.935Z,503.6
2023-01-15T08:02:48.878Z,503.3
2023-01-15T08:03:50.950Z,503.7
2023-01-15T08:04:52.884Z,503.5
2023-01-15T08:05:57.503Z,503.9
2023-01-15T08:06:59.268Z,504
2023-01-15T08:08:01.100Z,504
2023-01-15T08:09:02.946Z,504.1
2023-01-15T08:10:04.817Z,503.8
2023-01-15T08:11:06.657Z,503.7
2023-01-15T08:12:08.848Z,503.4
2023-01-15T08:13:10.766Z,503.4
2023-01-15T08:14:12.596Z,503.4
2023-01-15T08:15:14.641Z,503.5
2023-01-15T08:16:16.571Z,503.6
2023-01-15T08:17:18.359Z,503.3
2023-01-15T08:18:20.331Z,503.1
2023-01-15T08:19:22.358Z,503.2
2023-01-15T08:20:24.420Z,503.1
2023-01-15T08:21:26.276Z,502.8
2023-01-15T08:22:28.119Z,503.1
2023-01-15T08:23:29.980Z,502.8
2023-01-15T08:24:31.828Z,502.9
2023-01-15T08:25:33.782Z,502.9
2023-01-15T08:26:35.614Z,502.7
2023-01-15T08:27:37.587Z,502.7
2023-01-15T08:28:39.443Z,503.4
2023-01-15T08:29:41.383Z,503.2
2023-01-15T08:30:43.382Z,503
2023-01-15T08:31:45.614Z,502.7
2023-01-15T08:32:47.431Z,503
2023-01-15T08:33:49.369Z,502.5
2023-01-15T08:34:51.339Z,502.3
2023-01-15T08:35:53.308Z,502.5
2023-01-15T08:36:55.249Z,502.7
2023-01-15T08:37:57.142Z,502.9
2023-01-15T08:38:59.055Z,503
2023-01-15T08:40:01.143Z,503.1
2023-01-15T08:41:03.199Z,503
2023-01-15T08:42:05.119Z,503
2023-01-15T08:43:07.102Z,503.3
2023-01-15T08:44:09.270Z,502.9
2023-01-15T08:45:11.334Z,503.1
2023-01-15T08:46:13.736Z,503.3
2023-01-15T08:47:15.688Z,503.3
2023-01-15T08:48:17.539Z,503.1
2023-01-15T08:49:19.398Z,503.3
2023-01-15T08:50:21.250Z,503.5
2023-01-15T08:51:23.021Z,503.4
2023-01-15T08:52:24.948Z,503.4
2023-01-15T08:53:26.807Z,503.6
2023-01-15T08:54:28.635Z,503.4
2023-01-15T08:55:30.492Z,503.9
2023-01-15T08:56:32.339Z,503.7
2023-01-15T08:57:34.196Z,503.6
2023-01-15T08:58:36.197Z,503.5
2023-01-15T08:59:37.997Z,503.7
2023-01-15T09:00:39.851Z,503.4
2023-01-15T09:01:42.540Z,503.3
2023-01-15T09:02:44.373Z,503.3
2023-01-15T09:03:46.363Z,503.6
2023-01-15T09:04:48.669Z,503.7
2023-01-15T09:05:50.537Z,503.3
2023-01-15T09:06:52.486Z,503.4
2023-01-15T09:07:54.327Z,503.4
2023-01-15T09:08:56.276Z,503.4
2023-01-15T09:09:58.239Z,503.5
2023-01-15T09:11:00.109Z,503.8
2023-01-15T09:12:01.931Z,503.5
2023-01-15T09:13:03.815Z,503.9
2023-01-15T09:14:05.651Z,503.8
2023-01-15T09:15:07.484Z,503.7
2023-01-15T09:16:11.084Z,504.1
2023-01-15T09:17:13.041Z,504.2
2023-01-15T09:18:14.977Z,503.9
2023-01-15T09:19:16.757Z,503.9
2023-01-15T09:20:18.549Z,504
2023-01-15T09:21:20.481Z,504.5
2023-01-15T09:22:22.539Z,504.4
2023-01-15T09:23:24.452Z,504.1
2023-01-15T09:24:26.287Z,504.6
2023-01-15T09:25:28.139Z,504.4
2023-01-15T09:26:30.034Z,504.1
2023-01-15T09:27:31.830Z,504.5
2023-01-15T09:28:33.784Z,504.3
2023-01-15T09:29:35.756Z,504.8
2023-01-15T09:30:37.846Z,504.5
2023-01-15T09:31:39.878Z,504.5
2023-01-15T09:32:41.707Z,505
2023-01-15T09:33:43.545Z,505
2023-01-15T09:34:45.508Z,504.9
2023-01-15T09:35:47.461Z,505.2
2023-01-15T09:36:49.413Z,505.3
2023-01-15T09:37:51.258Z,505.5
2023-01-15T09:38:53.110Z,505.4
2023-01-15T09:39:54.963Z,505.7
2023-01-15T09:40:56.801Z,506.2
2023-01-15T09:41:58.661Z,505.8
2023-01-15T09:43:00.511Z,506
2023-01-15T09:44:02.291Z,506.1
2023-01-15T09:45:04.213Z,506.3
2023-01-15T09:46:06.291Z,506.6
2023-01-15T09:47:08.003Z,506.9
2023-01-15T09:48:09.960Z,506.7
2023-01-15T09:49:11.846Z,507.2
2023-01-15T09:50:13.703Z,507.5
2023-01-15T09:51:15.616Z,508
2023-01-15T09:52:17.595Z,507.6
2023-01-15T09:53:19.653Z,508
2023-01-15T09:54:21.598Z,508
2023-01-15T09:55:23.547Z,508.3
2023-01-15T09:56:25.509Z,508.4
2023-01-15T09:57:27.337Z,508.3
2023-01-15T09:58:29.187Z,508.5
2023-01-15T09:59:31.025Z,508.8
2023-01-15T10:00:32.988Z,508.9
2023-01-15T10:01:35.342Z,509.2
2023-01-15T10:02:37.201Z,509.4
2023-01-15T10:03:39.160Z,509.7
2023-01-15T10:04:41.000Z,509.9
2023-01-15T10:05:43.075Z,509.8
2023-01-15T10:06:44.905Z,510.2
2023-01-15T10:07:46.765Z,510.1
2023-01-15T10:08:48.710Z,510.7
2023-01-15T10:09:50.566Z,510.3
2023-01-15T10:10:52.293Z,511
2023-01-15T10:11:54.158Z,511.1
2023-01-15T10:12:56.015Z,511.5
2023-01-15T10:13:57.853Z,511.3
2023-01-15T10:14:59.695Z,511.3
2023-01-15T10:16:01.920Z,511.5
2023-01-15T10:17:03.818Z,511.9
2023-01-15T10:18:05.783Z,512
2023-01-15T10:19:07.726Z,512.1
2023-01-15T10:20:09.560Z,512.1
2023-01-15T10:21:11.407Z,512.1
2023-01-15T10:22:13.216Z,512.7
2023-01-15T10:23:15.232Z,512.7
2023-01-15T10:24:17.111Z,512.8
2023-01-15T10:25:19.034Z,512.8
2023-01-15T10:26:20.892Z,513.4
2023-01-15T10:27:23.000Z,513.3
2023-01-15T10:28:24.879Z,513.2
2023-01-15T10:29:26.720Z,513.4
2023-01-15T10:30:28.590Z,513.7
2023-01-15T10:31:30.433Z,513.4
2023-01-15T10:32:32.153Z,513.4
2023-01-15T10:33:34.143Z,513.8
2023-01-15T10:34:35.978Z,514.2
2023-01-15T10:35:37.956Z,514.1
2023-01-15T10:36:39.773Z,514.2
2023-01-15T10:37:41.925Z,514.2
2023-01-15T10:38:43.785Z,515
2023-01-15T10:39:45.741Z,515
2023-01-15T10:40:47.767Z,515.1
2023-01-15T10:41:49.635Z,515.5
2023-01-15T10:42:51.533Z,515.6
2023-01-15T10:43:53.346Z,515.7
2023-01-15T10:44:55.441Z,515.9
2023-01-15T10:45:57.527Z,515.8
2023-01-15T10:46:59.413Z,516.1
2023-01-15T10:48:01.261Z,515.9
2023-01-15T10:49:03.274Z,515.9
2023-01-15T10:50:05.237Z,516.3
2023-01-15T10:51:07.375Z,516.1
2023-01-15T10:52:09.066Z,516.4
2023-01-15T10:53:10.931Z,516.6
2023-01-15T10:54:12.680Z,517
2023-01-15T10:55:14.628Z,517.1
2023-01-15T10:56:16.611Z,517.2
2023-01-15T10:57:18.412Z,517.7
2023-01-15T10:58:20.259Z,517.6
2023-01-15T10:59:22.300Z,518.1
2023-01-15T11:00:24.286Z,518.2
2023-01-15T11:01:27.184Z,518.5
2023-01-15T11:02:29.924Z,518.3
2023-01-15T11:03:31.766Z,518.4
2023-01-15T11:04:33.625Z,518.5
2023-01-15T11:05:35.584Z,518.5
2023-01-15T11:06:37.433Z,518.6
2023-01-15T11:09:12.474Z,518.8
2023-01-15T11:10:14.522Z,519.3
2023-01-15T11:11:16.477Z,519.6
2023-01-15T11:12:18.413Z,519.6
2023-01-15T11:13:20.158Z,519.8
2023-01-15T11:14:22.010Z,520.1
2023-01-15T11:15:24.111Z,520.6
2023-01-15T11:16:26.021Z,520.6
2023-01-15T11:17:27.875Z,520.6
2023-01-15T11:18:29.722Z,520.6
2023-01-15T11:19:31.568Z,520.3
2023-01-15T11:20:33.532Z,520.5
2023-01-15T11:21:35.369Z,520.9
2023-01-15T11:22:37.357Z,520.8
2023-01-15T11:23:39.192Z,520.7
2023-01-15T11:24:41.029Z,521
2023-01-15T11:25:42.882Z,520.8
2023-01-15T11:26:44.682Z,521.1
2023-01-15T11:27:46.686Z,521.3
2023-01-15T11:28:48.531Z,521.4
2023-01-15T11:29:50.397Z,521.6
2023-01-15T11:30:52.542Z,521.8
2023-01-15T11:31:54.382Z,521.7
2023-01-15T11:32:56.385Z,522.2
2023-01-15T11:33:58.290Z,522.1
2023-01-15T11:35:00.149Z,522.5
2023-01-15T11:36:02.105Z,522.7
2023-01-15T11:37:03.952Z,522.5
2023-01-15T11:38:05.993Z,522.6
2023-01-15T11:39:07.840Z,522.9
2023-01-15T11:40:09.692Z,523.2
2023-01-15T11:41:11.567Z,523.4
2023-01-15T11:42:13.402Z,523.3
2023-01-15T11:43:15.349Z,523.5
2023-01-15T11:44:17.247Z,523.7
2023-01-15T11:45:19.299Z,523.6
2023-01-15T11:46:21.478Z,524
2023-01-15T11:47:23.355Z,523.9
2023-01-15T11:48:25.310Z,524.3
2023-01-15T11:49:27.322Z,524.2
2023-01-15T11:50:29.215Z,524.5
2023-01-15T11:51:31.171Z,524.3
2023-01-15T11:52:33.279Z,524.5
2023-01-15T11:53:35.158Z,524.9
2023-01-15T11:54:37.040Z,525
2023-01-15T11:55:38.893Z,525.4
2023-01-15T11:56:40.732Z,525.3
2023-01-15T11:57:42.695Z,525.2
2023-01-15T11:58:44.632Z,525.5
2023-01-15T11:59:46.479Z,525.5
2023-01-15T12:00:48.233Z,525.3
2023-01-15T12:01:50.189Z,525.4
2023-01-15T12:02:52.049Z,525.4
2023-01-15T12:03:54.568Z,525.6
2023-01-15T12:04:56.564Z,525.6
2023-01-15T12:05:58.500Z,525.6
2023-01-15T12:07:00.356Z,525.5
2023-01-15T12:08:02.325Z,525.8
2023-01-15T12:09:04.098Z,525.7
2023-01-15T12:10:06.010Z,526.2
2023-01-15T12:11:27.728Z,526.2
2023-01-15T12:12:29.591Z,526.4
2023-01-15T12:13:31.432Z,526.3
2023-01-15T12:14:33.244Z,526.5
2023-01-15T12:15:35.140Z,526.7
2023-01-15T12:16:37.093Z,526.7
2023-01-15T12:17:39.058Z,526.5
2023-01-15T12:18:40.822Z,527
2023-01-15T12:19:42.643Z,527
2023-01-15T12:20:44.582Z,526.9
2023-01-15T12:21:46.438Z,527
2023-01-15T12:22:48.297Z,527
2023-01-15T12:23:50.125Z,527.2
2023-01-15T12:24:51.982Z,527
2023-01-15T12:25:53.811Z,527
2023-01-15T12:26:55.686Z,527.4
2023-01-15T12:27:57.741Z,527.2
2023-01-15T12:28:59.583Z,527.3
2023-01-15T12:30:01.543Z,527.3
2023-01-15T12:31:03.633Z,527.4
2023-01-15T12:32:05.560Z,527.9
2023-01-15T12:33:07.404Z,527.2
2023-01-15T12:34:09.264Z,527.7
2023-01-15T12:35:11.037Z,527.9
2023-01-15T12:36:12.937Z,528.1
2023-01-15T12:37:14.927Z,528.2
2023-01-15T12:38:16.863Z,528.4
2023-01-15T12:39:18.700Z,528.2
2023-01-15T12:40:20.541Z,528.1
2023-01-15T12:41:22.401Z,528.2
2023-01-15T12:42:24.490Z,528.3
2023-01-15T12:43:26.415Z,528.5
2023-01-15T12:44:28.260Z,528.4
2023-01-15T12:45:30.338Z,529
2023-01-15T12:46:32.808Z,529
2023-01-15T12:47:34.638Z,529.2
2023-01-15T12:48:36.469Z,529.5
2023-01-15T12:49:38.346Z,529.2
2023-01-15T12:50:40.303Z,529.2
2023-01-15T12:51:42.148Z,528.9
2023-01-15T12:52:43.986Z,529.3
2023-01-15T12:53:45.894Z,529.3
2023-01-15T12:54:47.775Z,529.7
2023-01-15T12:55:49.631Z,529.7
2023-01-15T12:56:51.488Z,529.5
2023-01-15T12:57:53.283Z,530
2023-01-15T12:58:55.085Z,530.1
2023-01-15T12:59:56.940Z,529.8
2023-01-15T13:00:59.654Z,530.4
2023-01-15T13:02:02.043Z,530.2
2023-01-15T13:03:04.036Z,530.2
2023-01-15T13:04:05.982Z,530.5
2023-01-15T13:05:07.726Z,530.4
2023-01-15T13:06:09.564Z,530.5
2023-01-15T13:07:11.424Z,530.8
2023-01-15T13:08:13.236Z,530.7
2023-01-15T13:09:15.235Z,530.9
2023-01-15T13:10:17.078Z,531
2023-01-15T13:11:19.017Z,530.8
2023-01-15T13:12:20.872Z,530.9
2023-01-15T13:13:23.126Z,531.1
2023-01-15T13:14:25.115Z,531.3
2023-01-15T13:15:26.899Z,531.1
2023-01-15T13:16:28.897Z,530.7
2023-01-15T13:17:30.747Z,531.2
2023-01-15T13:18:32.592Z,531.4
2023-01-15T13:19:34.431Z,531.6
2023-01-15T13:20:36.285Z,531.8
2023-01-15T13:21:38.184Z,531.6
2023-01-15T13:22:40.121Z,531.6
2023-01-15T13:23:41.969Z,531.7
2023-01-15T13:24:43.787Z,531.9